Time;durP1;ratioP1;P1;durP2;ratioP2;P2;SDS_P1;SDS_P2;PMS_P1;PMS_P2;Temp;Humidity;BMP_temperature;BMP_pressure;BME280_temperature;BME280_humidity;BME280_pressure;Samples;Min_cycle;Max_cycle;Signal;HPM_P1;HPM_P2
2023/04/14 00:01:32;;;;;;;2.58;1.30;;;;;;;;;;5040614;28;20044;-83
2023/04/14 00:03:57;;;;;;;1.67;0.80;;;;;;;;;;5046586;28;20032;-80
2023/04/14 00:06:23;;;;;;;1.02;0.63;;;;;;;;;;5045122;28;20044;-83
2023/04/14 00:08:48;;;;;;;2.55;1.33;;;;;;;;;;5041567;28;20048;-79
2023/04/14 00:11:13;;;;;;;1.90;1.02;;;;;;;;;;5043110;28;20025;-81
2023/04/14 00:13:39;;;;;;;6.28;1.48;;;;;;;;;;5043603;28;20021;-82
2023/04/14 00:16:05;;;;;;;4.78;1.90;;;;;;;;;;5043496;28;20036;-82
2023/04/14 00:18:31;;;;;;;3.58;1.17;;;;;;;;;;5043981;28;20029;-83
2023/04/14 00:20:56;;;;;;;3.78;1.38;;;;;;;;;;5038307;28;20040;-83
2023/04/14 00:23:22;;;;;;;1.85;1.35;;;;;;;;;;5041463;28;20469;-82
2023/04/14 00:25:50;;;;;;;1.80;1.35;;;;;;;;;;5041622;28;20075;-82
2023/04/14 00:28:16;;;;;;;2.08;1.23;;;;;;;;;;5039038;28;20029;-81
2023/04/14 00:30:41;;;;;;;1.88;1.02;;;;;;;;;;5041422;28;20457;-81
2023/04/14 00:33:06;;;;;;;1.25;0.90;;;;;;;;;;5039409;28;20017;-82
2023/04/14 00:35:32;;;;;;;1.95;1.17;;;;;;;;;;5038871;28;20024;-82
2023/04/14 00:37:57;;;;;;;1.15;0.80;;;;;;;;;;5042967;28;20033;-83
2023/04/14 00:40:23;;;;;;;2.15;1.40;;;;;;;;;;5037272;28;20040;-83
2023/04/14 00:42:49;;;;;;;3.13;1.58;;;;;;;;;;5035745;28;20030;-81
2023/04/14 00:45:15;;;;;;;2.80;1.63;;;;;;;;;;5044321;28;20047;-83
2023/04/14 00:47:45;;;;;;;2.17;1.40;;;;;;;;;;5042215;28;20100;-81
2023/04/14 00:50:12;;;;;;;2.35;1.33;;;;;;;;;;5038498;28;20476;-82
2023/04/14 00:52:38;;;;;;;3.83;1.35;;;;;;;;;;5042556;28;20025;-82
2023/04/14 00:55:05;;;;;;;1.77;1.15;;;;;;;;;;5046483;28;20082;-82
2023/04/14 00:57:31;;;;;;;3.63;1.45;;;;;;;;;;5046111;28;20350;-82
2023/04/14 00:59:58;;;;;;;3.70;1.38;;;;;;;;;;5041290;28;20078;-81
2023/04/14 01:02:24;;;;;;;2.00;1.20;;;;;;;;;;5047110;28;20069;-81
2023/04/14 01:04:50;;;;;;;2.63;1.27;;;;;;;;;;5037076;28;20032;-82
2023/04/14 01:07:18;;;;;;;2.30;0.90;;;;;;;;;;5037824;28;20024;-82
2023/04/14 01:09:43;;;;;;;1.65;1.25;;;;;;;;;;5041034;28;20033;-82
2023/04/14 01:12:22;;;;;;;4.78;1.25;;;;;;;;;;5041792;28;20072;-82
2023/04/14 01:15:16;;;;;;;2.03;1.35;;;;;;;;;;5040280;28;20025;-83
2023/04/14 01:18:10;;;;;;;2.28;1.13;;;;;;;;;;5039559;28;20036;-81
2023/04/14 01:20:46;;;;;;;1.33;1.00;;;;;;;;;;5041019;28;20018;-82
2023/04/14 01:23:25;;;;;;;2.25;1.40;;;;;;;;;;5043244;28;20032;-82
2023/04/14 01:26:14;;;;;;;1.67;1.23;;;;;;;;;;5040295;28;20033;-83
2023/04/14 01:29:01;;;;;;;1.02;0.80;;;;;;;;;;5046335;28;20414;-83
2023/04/14 01:31:35;;;;;;;1.48;1.23;;;;;;;;;;5039324;28;20025;-83
2023/04/14 01:34:15;;;;;;;1.83;0.98;;;;;;;;;;5037960;28;20488;-82
2023/04/14 01:36:46;;;;;;;;;;;;;;;;;;5043640;28;20025;-81
2023/04/14 01:39:17;;;;;;;2.03;1.10;;;;;;;;;;5036145;28;19916;-82
2023/04/14 01:41:47;;;;;;;2.83;1.42;;;;;;;;;;5038799;28;20033;-81
2023/04/14 01:44:15;;;;;;;1.40;0.88;;;;;;;;;;5039037;28;20505;-83
2023/04/14 01:46:42;;;;;;;3.03;1.63;;;;;;;;;;5039347;28;20029;-83
2023/04/14 01:49:10;;;;;;;1.55;1.08;;;;;;;;;;5039791;28;20032;-81
2023/04/14 01:51:39;;;;;;;1.63;0.85;;;;;;;;;;5043787;28;20417;-83
2023/04/14 01:54:08;;;;;;;2.38;1.13;;;;;;;;;;5040611;28;20441;-82
2023/04/14 01:56:36;;;;;;;3.28;1.20;;;;;;;;;;5038432;28;20032;-83
2023/04/14 01:59:03;;;;;;;1.52;1.02;;;;;;;;;;5046243;28;20876;-83
2023/04/14 02:01:29;;;;;;;1.38;1.00;;;;;;;;;;5038287;28;20092;-82
2023/04/14 02:03:54;;;;;;;2.05;1.25;;;;;;;;;;5039148;28;20489;-84
2023/04/14 02:06:21;;;;;;;3.40;1.00;;;;;;;;;;5040266;28;20073;-84
2023/04/14 02:08:47;;;;;;;2.20;1.17;;;;;;;;;;5044187;28;20494;-82
2023/04/14 02:11:14;;;;;;;2.33;0.85;;;;;;;;;;5036410;28;20032;-82
2023/04/14 02:13:42;;;;;;;2.80;1.40;;;;;;;;;;5043675;28;20758;-82
2023/04/14 02:16:10;;;;;;;1.83;0.95;;;;;;;;;;5036452;28;20025;-82
2023/04/14 02:18:38;;;;;;;1.27;0.73;;;;;;;;;;5040815;28;20039;-81
2023/04/14 02:21:04;;;;;;;0.73;0.70;;;;;;;;;;5041378;28;20500;-84
2023/04/14 02:23:30;;;;;;;2.65;1.63;;;;;;;;;;5038008;28;20025;-83
2023/04/14 02:26:11;;;;;;;1.40;0.80;;;;;;;;;;5040742;28;20053;-81
2023/04/14 02:28:42;;;;;;;2.03;0.90;;;;;;;;;;5071884;28;20476;-84
2023/04/14 02:31:11;;;;;;;7.00;1.42;;;;;;;;;;5040165;28;20036;-82
2023/04/14 02:33:38;;;;;;;1.92;1.30;;;;;;;;;;5042284;28;20053;-82
2023/04/14 02:36:15;;;;;;;2.08;1.20;;;;;;;;;;5044876;28;20044;-82
2023/04/14 02:38:46;;;;;;;1.45;1.00;;;;;;;;;;5042850;28;20064;-83
2023/04/14 02:41:22;;;;;;;1.80;1.13;;;;;;;;;;5042972;28;20025;-80
2023/04/14 02:44:07;;;;;;;1.45;1.25;;;;;;;;;;5037321;28;20390;-83
2023/04/14 02:46:38;;;;;;;1.10;1.00;;;;;;;;;;5042029;28;20460;-83
2023/04/14 02:49:05;;;;;;;1.95;1.05;;;;;;;;;;5041460;28;20496;-81
2023/04/14 02:51:35;;;;;;;2.08;1.10;;;;;;;;;;5044057;28;20029;-81
2023/04/14 02:54:02;;;;;;;2.17;1.10;;;;;;;;;;5041495;28;20429;-82
2023/04/14 02:56:29;;;;;;;4.10;1.35;;;;;;;;;;5040108;28;20040;-82
2023/04/14 02:58:55;;;;;;;2.05;1.27;;;;;;;;;;5041212;28;20052;-81
2023/04/14 03:01:21;;;;;;;2.33;1.60;;;;;;;;;;5039132;28;20025;-82
2023/04/14 03:03:48;;;;;;;2.25;1.48;;;;;;;;;;5053021;28;20108;-83
2023/04/14 03:06:15;;;;;;;3.88;1.88;;;;;;;;;;5039717;28;20025;-82
2023/04/14 03:08:41;;;;;;;3.50;1.55;;;;;;;;;;5041109;28;20033;-81
2023/04/14 03:11:08;;;;;;;4.05;1.85;;;;;;;;;;5037616;28;20033;-81
2023/04/14 03:13:34;;;;;;;2.72;1.38;;;;;;;;;;5032067;28;20021;-81
2023/04/14 03:16:02;;;;;;;2.58;1.40;;;;;;;;;;5042620;28;20120;-82
2023/04/14 03:18:30;;;;;;;1.75;1.42;;;;;;;;;;5039091;28;20732;-82
2023/04/14 03:20:59;;;;;;;7.15;1.45;;;;;;;;;;5045106;28;20074;-82
2023/04/14 03:23:26;;;;;;;4.50;2.25;;;;;;;;;;5043006;28;20029;-81
2023/04/14 03:25:52;;;;;;;1.42;0.93;;;;;;;;;;5040282;28;20397;-81
2023/04/14 03:28:21;;;;;;;1.17;0.90;;;;;;;;;;5042731;28;20358;-82
2023/04/14 03:30:50;;;;;;;1.92;1.20;;;;;;;;;;5047297;28;20033;-82
2023/04/14 03:33:22;;;;;;;4.88;1.38;;;;;;;;;;5038631;28;20240;-83
2023/04/14 03:35:49;;;;;;;2.25;1.20;;;;;;;;;;5043372;28;20033;-83
2023/04/14 03:38:15;;;;;;;1.38;0.82;;;;;;;;;;5044504;28;20025;-80
2023/04/14 03:40:45;;;;;;;1.23;1.02;;;;;;;;;;5039401;28;20080;-82
2023/04/14 03:43:12;;;;;;;3.10;1.20;;;;;;;;;;5039017;28;20032;-81
2023/04/14 03:45:38;;;;;;;1.48;1.00;;;;;;;;;;5043992;28;20073;-82
2023/04/14 03:48:06;;;;;;;0.73;0.73;;;;;;;;;;5046083;28;20037;-81
2023/04/14 03:50:39;;;;;;;1.75;1.30;;;;;;;;;;5046443;28;20036;-82
2023/04/14 03:53:07;;;;;;;5.25;1.10;;;;;;;;;;5041313;28;20389;-81
2023/04/14 03:55:35;;;;;;;1.92;1.50;;;;;;;;;;5046175;28;20021;-84
2023/04/14 03:58:02;;;;;;;1.77;1.02;;;;;;;;;;5043762;28;20043;-82
2023/04/14 04:00:29;;;;;;;1.10;0.80;;;;;;;;;;5038783;28;21065;-83
2023/04/14 04:02:56;;;;;;;2.90;1.25;;;;;;;;;;5042298;28;20025;-82
2023/04/14 04:05:22;;;;;;;4.65;1.30;;;;;;;;;;5043784;28;20025;-82
2023/04/14 04:07:49;;;;;;;2.05;0.95;;;;;;;;;;5043209;28;20041;-83
2023/04/14 04:10:16;;;;;;;3.70;1.45;;;;;;;;;;5040147;28;20097;-83
2023/04/14 04:12:42;;;;;;;4.05;2.17;;;;;;;;;;5041250;28;20385;-82
2023/04/14 04:15:08;;;;;;;3.03;1.85;;;;;;;;;;5072469;28;20025;-82
2023/04/14 04:17:34;;;;;;;4.18;2.03;;;;;;;;;;5048211;28;20048;-82
2023/04/14 04:20:05;;;;;;;3.72;1.60;;;;;;;;;;5043925;28;20029;-82
2023/04/14 04:22:34;;;;;;;2.03;1.25;;;;;;;;;;5045361;28;20038;-83
2023/04/14 04:25:00;;;;;;;8.00;1.83;;;;;;;;;;5042576;28;20496;-81
2023/04/14 04:27:26;;;;;;;1.60;0.95;;;;;;;;;;5045764;28;20036;-79
2023/04/14 04:29:52;;;;;;;1.00;0.70;;;;;;;;;;5039297;28;20033;-81
2023/04/14 04:32:17;;;;;;;1.20;0.98;;;;;;;;;;5036975;28;20018;-82
2023/04/14 04:34:43;;;;;;;0.90;0.73;;;;;;;;;;5037198;28;20029;-81
2023/04/14 04:37:09;;;;;;;3.33;1.15;;;;;;;;;;5038670;28;20033;-80
2023/04/14 04:39:35;;;;;;;3.45;1.52;;;;;;;;;;5038227;28;20056;-81
2023/04/14 04:42:05;;;;;;;2.80;1.42;;;;;;;;;;5037087;28;20060;-81
2023/04/14 04:44:32;;;;;;;2.92;1.77;;;;;;;;;;5044910;28;20386;-81
2023/04/14 04:46:58;;;;;;;3.05;2.30;;;;;;;;;;5040278;28;20025;-81
2023/04/14 04:49:23;;;;;;;1.45;1.10;;;;;;;;;;5040070;28;20029;-81
2023/04/14 04:51:49;;;;;;;2.97;1.60;;;;;;;;;;5045082;28;20059;-81
2023/04/14 04:54:16;;;;;;;1.55;1.38;;;;;;;;;;5046577;28;20456;-81
2023/04/14 04:56:41;;;;;;;2.08;1.30;;;;;;;;;;5040851;28;20031;-80
2023/04/14 04:59:07;;;;;;;1.20;1.00;;;;;;;;;;5044624;28;20025;-81
2023/04/14 05:01:33;;;;;;;2.45;1.50;;;;;;;;;;5041961;28;20063;-80
2023/04/14 05:03:58;;;;;;;0.95;0.75;;;;;;;;;;5040193;28;20458;-81
2023/04/14 05:06:24;;;;;;;2.10;1.42;;;;;;;;;;5045299;28;20033;-80
2023/04/14 05:08:54;;;;;;;1.42;1.25;;;;;;;;;;5039664;28;20036;-82
2023/04/14 05:11:19;;;;;;;;;;;;;;;;;;5036297;28;20104;-81
2023/04/14 05:13:45;;;;;;;1.75;1.30;;;;;;;;;;5040522;28;19948;-82
2023/04/14 05:16:12;;;;;;;1.20;1.05;;;;;;;;;;5041647;28;20029;-82
2023/04/14 05:18:38;;;;;;;3.50;1.30;;;;;;;;;;5040078;28;20029;-83
2023/04/14 05:21:09;;;;;;;1.35;1.17;;;;;;;;;;5036477;28;20036;-82
2023/04/14 05:23:38;;;;;;;4.35;1.27;;;;;;;;;;5036109;28;20120;-82
2023/04/14 05:26:04;;;;;;;1.15;1.02;;;;;;;;;;5036105;28;20079;-81
2023/04/14 05:28:31;;;;;;;1.42;1.02;;;;;;;;;;5041784;28;20477;-82
2023/04/14 05:30:56;;;;;;;2.13;1.48;;;;;;;;;;5035174;28;20057;-84
2023/04/14 05:33:22;;;;;;;1.23;0.90;;;;;;;;;;5036826;28;20061;-83
2023/04/14 05:35:49;;;;;;;1.75;1.13;;;;;;;;;;5041677;28;20036;-82
2023/04/14 05:38:15;;;;;;;3.03;1.67;;;;;;;;;;5034761;28;20036;-82
2023/04/14 05:40:41;;;;;;;1.77;1.40;;;;;;;;;;5033969;28;20458;-82
2023/04/14 05:43:06;;;;;;;4.28;2.10;;;;;;;;;;5034849;28;20032;-83
2023/04/14 05:45:32;;;;;;;6.35;1.83;;;;;;;;;;5042500;28;20045;-83
2023/04/14 05:47:57;;;;;;;1.10;0.98;;;;;;;;;;5039912;28;20037;-84
2023/04/14 05:50:23;;;;;;;1.20;1.10;;;;;;;;;;5039270;28;20024;-83
2023/04/14 05:52:49;;;;;;;1.88;1.13;;;;;;;;;;5041669;28;20048;-83
2023/04/14 05:55:15;;;;;;;1.70;1.10;;;;;;;;;;5038699;28;20545;-80
2023/04/14 05:57:41;;;;;;;1.40;1.13;;;;;;;;;;5038063;28;20100;-82
2023/04/14 06:00:08;;;;;;;1.10;1.00;;;;;;;;;;5041730;28;20099;-80
2023/04/14 06:02:34;;;;;;;1.33;1.15;;;;;;;;;;5044550;28;20526;-81
2023/04/14 06:05:00;;;;;;;1.90;1.50;;;;;;;;;;5039821;28;20030;-80
2023/04/14 06:07:26;;;;;;;2.15;1.33;;;;;;;;;;5041826;28;20035;-80
2023/04/14 06:09:51;;;;;;;3.03;1.38;;;;;;;;;;5035131;28;20052;-82
2023/04/14 06:12:17;;;;;;;2.65;1.42;;;;;;;;;;5040275;28;20371;-80
2023/04/14 06:14:42;;;;;;;2.50;1.23;;;;;;;;;;5033825;28;20064;-83
2023/04/14 06:17:08;;;;;;;12.73;1.50;;;;;;;;;;5033712;28;20022;-77
2023/04/14 06:19:33;;;;;;;3.20;2.15;;;;;;;;;;5033336;28;20032;-79
2023/04/14 06:21:59;;;;;;;2.08;1.45;;;;;;;;;;5038999;28;20029;-79
2023/04/14 06:24:24;;;;;;;3.20;1.10;;;;;;;;;;5038435;28;20063;-80
2023/04/14 06:26:50;;;;;;;2.08;1.13;;;;;;;;;;5040993;28;20032;-79
2023/04/14 06:29:16;;;;;;;3.28;1.50;;;;;;;;;;5037738;28;20390;-79
2023/04/14 06:31:41;;;;;;;2.17;1.25;;;;;;;;;;5035678;28;20067;-80
2023/04/14 06:34:07;;;;;;;1.98;1.05;;;;;;;;;;5031015;28;20025;-80
2023/04/14 06:36:32;;;;;;;1.27;0.95;;;;;;;;;;5037790;28;20037;-80
2023/04/14 06:38:57;;;;;;;1.98;1.30;;;;;;;;;;5046179;28;20042;-80
2023/04/14 06:41:23;;;;;;;0.98;0.85;;;;;;;;;;5033328;28;20032;-80
2023/04/14 06:43:49;;;;;;;1.92;1.10;;;;;;;;;;5033118;28;20067;-79
2023/04/14 06:46:16;;;;;;;1.27;1.15;;;;;;;;;;5036952;28;20032;-80
2023/04/14 06:48:41;;;;;;;2.65;1.33;;;;;;;;;;5036340;28;20025;-79
2023/04/14 06:51:11;;;;;;;2.67;1.35;;;;;;;;;;5038615;28;20033;-83
2023/04/14 06:53:36;;;;;;;2.00;1.20;;;;;;;;;;5034603;28;20029;-80
2023/04/14 06:56:02;;;;;;;3.53;1.38;;;;;;;;;;5033922;28;20747;-81
2023/04/14 06:58:27;;;;;;;3.20;1.30;;;;;;;;;;5041277;28;20076;-80
2023/04/14 07:00:57;;;;;;;1.95;0.90;;;;;;;;;;5039066;28;20029;-81
2023/04/14 07:03:23;;;;;;;1.33;0.98;;;;;;;;;;5034365;28;20079;-82
2023/04/14 07:05:49;;;;;;;1.58;0.93;;;;;;;;;;5038113;28;20420;-80
2023/04/14 07:08:15;;;;;;;1.75;1.10;;;;;;;;;;5045523;28;20030;-81
2023/04/14 07:10:40;;;;;;;1.95;1.52;;;;;;;;;;5050850;28;20056;-85
2023/04/14 07:13:06;;;;;;;3.03;1.40;;;;;;;;;;5043483;28;20056;-82
2023/04/14 07:15:31;;;;;;;1.48;1.15;;;;;;;;;;5035398;28;20386;-82
2023/04/14 07:17:57;;;;;;;1.92;1.10;;;;;;;;;;5034911;28;20033;-82
2023/04/14 07:20:22;;;;;;;1.55;0.82;;;;;;;;;;5039022;28;20064;-80
2023/04/14 07:22:47;;;;;;;0.88;0.70;;;;;;;;;;5041780;28;20124;-81
2023/04/14 07:25:13;;;;;;;1.13;1.02;;;;;;;;;;5042537;28;20033;-81
2023/04/14 07:27:39;;;;;;;2.22;0.95;;;;;;;;;;5040755;28;20036;-81
2023/04/14 07:30:05;;;;;;;3.20;1.60;;;;;;;;;;5034347;28;20474;-82
2023/04/14 07:32:31;;;;;;;2.13;1.45;;;;;;;;;;5041597;28;20045;-81
2023/04/14 07:34:57;;;;;;;1.45;1.00;;;;;;;;;;5042224;28;20088;-81
2023/04/14 07:37:23;;;;;;;3.38;1.38;;;;;;;;;;5033504;28;20041;-81
2023/04/14 07:39:48;;;;;;;2.78;0.90;;;;;;;;;;5035234;28;20029;-82
2023/04/14 07:42:14;;;;;;;1.42;0.95;;;;;;;;;;5041436;28;20381;-81
2023/04/14 07:44:39;;;;;;;1.40;0.93;;;;;;;;;;5040890;28;20500;-81
2023/04/14 07:47:05;;;;;;;1.38;1.00;;;;;;;;;;5042945;28;20064;-80
2023/04/14 07:49:31;;;;;;;1.30;0.93;;;;;;;;;;5036589;28;20030;-81
2023/04/14 07:51:56;;;;;;;6.35;1.70;;;;;;;;;;5049604;28;20082;-81
2023/04/14 07:54:22;;;;;;;3.33;1.52;;;;;;;;;;5041807;28;20041;-81
2023/04/14 07:56:47;;;;;;;3.60;1.73;;;;;;;;;;5045441;28;20036;-82
2023/04/14 07:59:13;;;;;;;4.05;1.48;;;;;;;;;;5042417;28;20107;-85
2023/04/14 08:01:39;;;;;;;4.93;1.00;;;;;;;;;;5041485;28;20485;-88
2023/04/14 08:04:04;;;;;;;5.47;0.90;;;;;;;;;;5049355;28;20057;-84
2023/04/14 08:06:30;;;;;;;5.18;2.10;;;;;;;;;;5051230;28;20107;-88
2023/04/14 08:08:55;;;;;;;4.13;1.27;;;;;;;;;;5049505;28;20029;-87
2023/04/14 08:11:21;;;;;;;5.25;1.45;;;;;;;;;;5045859;28;20037;-85
2023/04/14 08:13:48;;;;;;;3.83;0.80;;;;;;;;;;5042112;28;20025;-85
2023/04/14 08:16:14;;;;;;;5.05;1.00;;;;;;;;;;5040612;28;20355;-86
2023/04/14 08:18:40;;;;;;;8.60;0.77;;;;;;;;;;5040564;28;20029;-87
2023/04/14 08:21:06;;;;;;;2.33;1.00;;;;;;;;;;5047193;28;20025;-85
2023/04/14 08:23:32;;;;;;;6.78;1.10;;;;;;;;;;5040203;28;20029;-86
2023/04/14 08:25:57;;;;;;;2.83;0.70;;;;;;;;;;5045514;28;20040;-84
2023/04/14 08:28:23;;;;;;;3.20;0.80;;;;;;;;;;5044862;28;20036;-84
2023/04/14 08:30:49;;;;;;;2.15;1.30;;;;;;;;;;5039934;28;20021;-87
2023/04/14 08:33:15;;;;;;;5.65;0.95;;;;;;;;;;5046321;28;20017;-89
2023/04/14 08:35:41;;;;;;;6.80;1.95;;;;;;;;;;5048069;28;20024;-87
2023/04/14 08:38:06;;;;;;;2.20;0.70;;;;;;;;;;5047008;28;20029;-88
2023/04/14 08:40:37;;;;;;;4.28;1.60;;;;;;;;;;5044279;28;20028;-85
2023/04/14 08:43:03;;;;;;;5.15;1.10;;;;;;;;;;5040648;28;20103;-87
2023/04/14 08:45:34;;;;;;;3.65;1.23;;;;;;;;;;5044036;28;20126;-89
2023/04/14 08:48:03;;;;;;;3.72;1.02;;;;;;;;;;5048486;28;20093;-88
2023/04/14 08:50:35;;;;;;;2.38;1.13;;;;;;;;;;5045212;28;20025;-86
2023/04/14 08:53:04;;;;;;;2.63;0.90;;;;;;;;;;5049833;28;20025;-83
2023/04/14 08:55:35;;;;;;;6.88;0.98;;;;;;;;;;5040850;28;20477;-85
2023/04/14 08:58:01;;;;;;;4.25;0.95;;;;;;;;;;5046437;28;20041;-85
2023/04/14 09:00:26;;;;;;;2.45;1.10;;;;;;;;;;5035638;28;20044;-81
2023/04/14 09:02:53;;;;;;;2.95;0.70;;;;;;;;;;5036776;28;20482;-84
2023/04/14 09:05:19;;;;;;;3.38;1.27;;;;;;;;;;5043004;28;20025;-83
2023/04/14 09:07:44;;;;;;;2.55;1.45;;;;;;;;;;5040550;28;20045;-83
2023/04/14 09:10:10;;;;;;;3.00;0.95;;;;;;;;;;5036019;28;20498;-83
2023/04/14 09:12:38;;;;;;;1.83;0.80;;;;;;;;;;5043990;28;20151;-85
2023/04/14 09:15:04;;;;;;;4.82;0.88;;;;;;;;;;5039123;28;20029;-81
2023/04/14 09:17:30;;;;;;;3.38;1.02;;;;;;;;;;5048943;28;20496;-83
2023/04/14 09:19:56;;;;;;;3.25;1.70;;;;;;;;;;5038578;28;20377;-83
2023/04/14 09:22:21;;;;;;;2.60;0.80;;;;;;;;;;5041998;28;20112;-81
2023/04/14 09:24:47;;;;;;;3.05;1.10;;;;;;;;;;5044538;28;20044;-82
2023/04/14 09:27:12;;;;;;;3.38;0.93;;;;;;;;;;5040868;28;20021;-82
2023/04/14 09:29:39;;;;;;;2.33;1.33;;;;;;;;;;5039332;28;20829;-82
2023/04/14 09:32:05;;;;;;;4.65;1.40;;;;;;;;;;5043460;28;20025;-82
2023/04/14 09:34:31;;;;;;;5.18;0.82;;;;;;;;;;5041886;28;20040;-81
2023/04/14 09:37:04;;;;;;;2.58;0.88;;;;;;;;;;5039114;28;20037;-79
2023/04/14 09:39:33;;;;;;;1.65;0.93;;;;;;;;;;5040964;28;20024;-82
2023/04/14 09:42:02;;;;;;;3.13;0.82;;;;;;;;;;5032962;28;20120;-83
2023/04/14 09:44:29;;;;;;;8.13;1.95;;;;;;;;;;5028355;28;20037;-84
2023/04/14 09:46:58;;;;;;;4.13;0.85;;;;;;;;;;5033043;28;20513;-83
2023/04/14 09:49:24;;;;;;;4.20;1.30;;;;;;;;;;5027748;28;20463;-82
2023/04/14 09:51:52;;;;;;;1.40;0.88;;;;;;;;;;5029675;28;20588;-84
2023/04/14 09:54:25;;;;;;;8.30;1.90;;;;;;;;;;5047587;28;20037;-85
2023/04/14 09:56:53;;;;;;;1.92;0.95;;;;;;;;;;5034105;28;20033;-82
2023/04/14 09:59:33;;;;;;;3.15;0.60;;;;;;;;;;5040112;28;20056;-83
2023/04/14 10:02:02;;;;;;;;;;;;;;;;;;5034959;28;20037;-83
2023/04/14 10:04:27;;;;;;;1.27;0.85;;;;;;;;;;5038873;28;19917;-84
2023/04/14 10:06:57;;;;;;;7.45;1.05;;;;;;;;;;5039718;28;20033;-82
2023/04/14 10:09:26;;;;;;;6.13;1.00;;;;;;;;;;5043761;28;20035;-83
2023/04/14 10:12:12;;;;;;;2.53;0.97;;;;;;;;;;5044852;28;20374;-85
2023/04/14 10:14:41;;;;;;;6.43;1.27;;;;;;;;;;5034482;28;20784;-82
2023/04/14 10:17:08;;;;;;;3.35;1.83;;;;;;;;;;5039131;28;20021;-83
2023/04/14 10:19:37;;;;;;;3.70;1.25;;;;;;;;;;5033381;28;20071;-83
2023/04/14 10:22:04;;;;;;;1.45;0.80;;;;;;;;;;5037243;28;20493;-83
2023/04/14 10:24:31;;;;;;;8.55;1.90;;;;;;;;;;5038668;28;20025;-81
2023/04/14 10:26:57;;;;;;;2.95;1.10;;;;;;;;;;5039177;28;20037;-84
2023/04/14 10:29:23;;;;;;;5.47;1.27;;;;;;;;;;5046325;28;20247;-81
2023/04/14 10:31:57;;;;;;;2.83;1.50;;;;;;;;;;5039804;28;20060;-83
2023/04/14 10:34:24;;;;;;;6.45;1.27;;;;;;;;;;5064940;28;20025;-82
2023/04/14 10:36:50;;;;;;;3.92;2.05;;;;;;;;;;5038288;28;20408;-81
2023/04/14 10:39:23;;;;;;;4.60;1.10;;;;;;;;;;5046890;28;20021;-82
2023/04/14 10:41:51;;;;;;;3.35;1.20;;;;;;;;;;5038409;28;20053;-82
2023/04/14 10:44:27;;;;;;;3.17;1.15;;;;;;;;;;5041808;28;20037;-85
2023/04/14 10:46:55;;;;;;;4.32;1.65;;;;;;;;;;5040858;28;20040;-82
2023/04/14 10:49:28;;;;;;;2.25;1.20;;;;;;;;;;5035919;28;20064;-82
2023/04/14 10:51:53;;;;;;;2.78;0.77;;;;;;;;;;5037078;28;20021;-80
2023/04/14 10:54:18;;;;;;;0.85;0.50;;;;;;;;;;5039381;28;20025;-83
2023/04/14 10:57:13;;;;;;;3.75;0.70;;;;;;;;;;5032161;28;20084;-82
2023/04/14 10:59:42;;;;;;;0.30;0.30;;;;;;;;;;5038662;28;20076;-81
2023/04/14 11:02:24;;;;;;;1.02;0.20;;;;;;;;;;5028525;28;20029;-80
2023/04/14 11:05:13;;;;;;;0.28;0.28;;;;;;;;;;5033284;28;20122;-81
2023/04/14 11:07:47;;;;;;;0.28;0.28;;;;;;;;;;5035723;28;20036;-82
2023/04/14 11:10:15;;;;;;;0.57;0.30;;;;;;;;;;5040353;28;20065;-80
2023/04/14 11:12:45;;;;;;;0.75;0.45;;;;;;;;;;5035620;28;20151;-80
2023/04/14 11:15:10;;;;;;;0.35;0.30;;;;;;;;;;5033783;28;20029;-80
2023/04/14 11:17:40;;;;;;;0.93;0.40;;;;;;;;;;5038761;28;20059;-81
2023/04/14 11:20:19;;;;;;;2.08;0.38;;;;;;;;;;5041405;28;20040;-84
2023/04/14 11:22:47;;;;;;;0.32;0.28;;;;;;;;;;5032789;28;20488;-79
2023/04/14 11:25:15;;;;;;;0.20;0.20;;;;;;;;;;5040241;28;20021;-80
2023/04/14 11:27:42;;;;;;;0.30;0.30;;;;;;;;;;5039369;28;20045;-80
2023/04/14 11:30:13;;;;;;;0.10;0.10;;;;;;;;;;5031612;28;20033;-81
2023/04/14 11:32:50;;;;;;;0.65;0.30;;;;;;;;;;5038608;28;20466;-80
2023/04/14 11:35:16;;;;;;;0.20;0.20;;;;;;;;;;5047367;28;20036;-79
2023/04/14 11:37:42;;;;;;;0.13;0.13;;;;;;;;;;5040492;28;20021;-79
2023/04/14 11:40:12;;;;;;;0.20;0.20;;;;;;;;;;5039487;28;20036;-80
2023/04/14 11:42:42;;;;;;;0.00;0.00;;;;;;;;;;5037827;28;20036;-81
2023/04/14 11:45:08;;;;;;;;;;;;;;;;;;5043185;28;20107;-80
2023/04/14 11:47:33;;;;;;;0.00;0.00;;;;;;;;;;5037643;28;20320;-79
2023/04/14 11:50:04;;;;;;;0.30;0.20;;;;;;;;;;5050071;28;20029;-80
2023/04/14 11:52:32;;;;;;;0.03;0.03;;;;;;;;;;5047298;28;20022;-79
2023/04/14 11:54:58;;;;;;;0.20;0.20;;;;;;;;;;5036840;28;20030;-81
2023/04/14 11:57:24;;;;;;;0.30;0.20;;;;;;;;;;5034714;28;20079;-80
2023/04/14 11:59:50;;;;;;;0.17;0.17;;;;;;;;;;5036553;28;20035;-79
2023/04/14 12:02:17;;;;;;;0.68;0.25;;;;;;;;;;5037967;28;20033;-81
2023/04/14 12:04:48;;;;;;;0.10;0.10;;;;;;;;;;5035522;28;20025;-79
2023/04/14 12:07:16;;;;;;;0.10;0.10;;;;;;;;;;5035241;28;20104;-80
2023/04/14 12:09:45;;;;;;;0.10;0.10;;;;;;;;;;5034579;28;20044;-79
2023/04/14 12:12:12;;;;;;;0.10;0.10;;;;;;;;;;5036847;28;20029;-81
2023/04/14 12:14:42;;;;;;;0.10;0.10;;;;;;;;;;5041661;28;20021;-78
2023/04/14 12:17:08;;;;;;;0.10;0.10;;;;;;;;;;5033485;28;20021;-80
2023/04/14 12:19:35;;;;;;;0.10;0.10;;;;;;;;;;5039516;28;20492;-80
2023/04/14 12:22:02;;;;;;;0.10;0.10;;;;;;;;;;5038677;28;20036;-79
2023/04/14 12:24:33;;;;;;;0.08;0.05;;;;;;;;;;5031420;28;20032;-80
2023/04/14 12:26:58;;;;;;;0.10;0.10;;;;;;;;;;5042722;28;20492;-81
2023/04/14 12:29:24;;;;;;;0.10;0.10;;;;;;;;;;5044904;28;20029;-80
2023/04/14 12:31:52;;;;;;;0.10;0.10;;;;;;;;;;5036093;28;20543;-79
2023/04/14 12:34:24;;;;;;;0.10;0.10;;;;;;;;;;5036463;28;20021;-80
2023/04/14 12:36:51;;;;;;;0.10;0.10;;;;;;;;;;5038041;28;20115;-80
2023/04/14 12:39:17;;;;;;;0.65;0.35;;;;;;;;;;5039811;28;20115;-80
2023/04/14 12:41:42;;;;;;;1.55;0.68;;;;;;;;;;5040801;28;20109;-80
2023/04/14 12:44:16;;;;;;;0.20;0.20;;;;;;;;;;5039880;28;20045;-80
2023/04/14 12:46:49;;;;;;;1.95;0.40;;;;;;;;;;5037726;28;20033;-81
2023/04/14 12:49:33;;;;;;;0.30;0.30;;;;;;;;;;5036620;28;20385;-80
2023/04/14 12:51:59;;;;;;;0.60;0.43;;;;;;;;;;5042379;28;20029;-79
2023/04/14 12:54:25;;;;;;;1.02;0.43;;;;;;;;;;5041575;28;20162;-84
2023/04/14 12:56:50;;;;;;;0.55;0.30;;;;;;;;;;5034547;28;20492;-80
2023/04/14 12:59:16;;;;;;;0.28;0.22;;;;;;;;;;5039673;28;20026;-84
2023/04/14 13:01:41;;;;;;;2.90;1.67;;;;;;;;;;5039123;28;20025;-84
2023/04/14 13:04:07;;;;;;;0.88;0.50;;;;;;;;;;5046289;28;20083;-81
2023/04/14 13:06:33;;;;;;;0.57;0.20;;;;;;;;;;5037386;28;20127;-82
2023/04/14 13:08:59;;;;;;;0.00;0.00;;;;;;;;;;5040519;28;20032;-80
2023/04/14 13:11:24;;;;;;;0.38;0.20;;;;;;;;;;5040243;28;20025;-82
2023/04/14 13:13:52;;;;;;;0.43;0.40;;;;;;;;;;5040165;28;20037;-81
2023/04/14 13:16:18;;;;;;;0.10;0.10;;;;;;;;;;5040499;28;20025;-82
2023/04/14 13:18:44;;;;;;;0.00;0.00;;;;;;;;;;5046435;28;20574;-87
2023/04/14 13:21:10;;;;;;;0.00;0.00;;;;;;;;;;5037324;28;20029;-88
